Time;durP1;ratioP1;P1;durP2;ratioP2;P2;SDS_P1;SDS_P2;PMS_P1;PMS_P2;Temp;Humidity;BMP_temperature;BMP_pressure;BME280_temperature;BME280_humidity;BME280_pressure;Samples;Min_cycle;Max_cycle;Signal;HPM_P1;HPM_P2
2023/12/13 00:01:39;;;;;;;5.80;4.30;;;;;;;14.61;100.00;97626.66;5092863;28;20107;-48
2023/12/13 00:04:05;;;;;;;7.40;4.07;;;;;;;14.30;100.00;97621.91;5093521;28;20032;-48
2023/12/13 00:06:31;;;;;;;6.55;4.55;;;;;;;14.66;100.00;97608.22;5093513;28;20024;-48
2023/12/13 00:08:57;;;;;;;7.30;4.53;;;;;;;15.05;100.00;97615.88;5075197;28;20070;-48
2023/12/13 00:11:23;;;;;;;5.80;5.25;;;;;;;14.81;100.00;97621.56;5093402;28;20055;-48
2023/12/13 00:13:49;;;;;;;7.35;4.65;;;;;;;14.68;100.00;97614.84;5093336;28;20050;-48
2023/12/13 00:16:15;;;;;;;106.13;96.88;;;;;;;14.76;100.00;97624.16;5091909;28;20185;-48
2023/12/13 00:18:41;;;;;;;22.90;14.02;;;;;;;14.89;100.00;97617.63;5091936;28;20016;-48
2023/12/13 00:21:08;;;;;;;6.93;5.07;;;;;;;14.74;100.00;97595.34;5093167;28;20072;-48
2023/12/13 00:23:34;;;;;;;7.97;3.80;;;;;;;14.63;100.00;97583.13;5093437;28;20500;-48
2023/12/13 00:26:00;;;;;;;8.00;4.68;;;;;;;14.43;100.00;97570.53;5074867;28;20055;-48
2023/12/13 00:28:26;;;;;;;9.07;4.13;;;;;;;14.26;100.00;97568.03;5091797;28;20498;-48
2023/12/13 00:30:51;;;;;;;4.78;3.65;;;;;;;14.13;100.00;97557.91;5092980;28;20020;-48
2023/12/13 00:33:17;;;;;;;5.53;3.83;;;;;;;14.04;100.00;97562.81;5091727;28;20515;-48
2023/12/13 00:35:43;;;;;;;8.20;3.75;;;;;;;13.96;100.00;97550.09;5092911;28;20078;-48
2023/12/13 00:38:09;;;;;;;5.90;4.20;;;;;;;13.95;100.00;97559.84;5092630;28;20130;-48
2023/12/13 00:40:34;;;;;;;5.07;3.67;;;;;;;13.97;100.00;97551.69;5093101;28;20397;-48
2023/12/13 00:43:01;;;;;;;9.05;5.90;;;;;;;13.99;100.00;97557.50;5092821;28;20024;-48
2023/12/13 00:45:27;;;;;;;8.80;4.50;;;;;;;13.99;100.00;97566.22;5092763;28;20565;-48
2023/12/13 00:47:52;;;;;;;8.95;4.90;;;;;;;13.94;100.00;97560.91;5091417;28;20115;-48
2023/12/13 00:50:18;;;;;;;6.68;4.07;;;;;;;13.98;100.00;97577.81;5092724;28;20555;-48
2023/12/13 00:52:43;;;;;;;7.93;4.88;;;;;;;14.05;100.00;97566.28;5091436;28;20024;-48
2023/12/13 00:55:09;;;;;;;7.50;4.35;;;;;;;14.10;100.00;97568.94;5092795;28;20020;-48
2023/12/13 00:57:35;;;;;;;10.55;4.32;;;;;;;14.06;100.00;97559.94;5092594;28;20553;-48
2023/12/13 01:00:01;;;;;;;9.68;4.05;;;;;;;14.01;100.00;97549.34;5092458;28;20020;-48
2023/12/13 01:02:27;;;;;;;5.05;3.55;;;;;;;13.94;100.00;97553.00;5092518;28;20032;-48
2023/12/13 01:04:53;;;;;;;5.68;3.88;;;;;;;13.94;100.00;97565.38;5092480;28;20074;-48
2023/12/13 01:07:18;;;;;;;4.43;3.58;;;;;;;13.97;100.00;97559.59;5091112;28;20032;-48
2023/12/13 01:09:44;;;;;;;8.63;4.47;;;;;;;13.92;100.00;97543.72;5092561;28;20580;-48
2023/12/13 01:12:10;;;;;;;9.98;5.20;;;;;;;13.88;100.00;97524.16;5090953;28;20034;-48
2023/12/13 01:14:36;;;;;;;8.05;3.88;;;;;;;13.90;100.00;97524.72;5092135;28;20104;-48
2023/12/13 01:17:02;;;;;;;5.50;4.20;;;;;;;13.90;100.00;97543.16;5090877;28;20027;-48
2023/12/13 01:19:27;;;;;;;9.38;6.18;;;;;;;13.96;100.00;97536.91;5092183;28;20103;-48
2023/12/13 01:21:53;;;;;;;7.45;5.45;;;;;;;14.01;100.00;97522.97;5092125;28;20023;-48
2023/12/13 01:24:19;;;;;;;8.27;7.40;;;;;;;14.01;100.00;97529.03;5090806;28;20031;-48
2023/12/13 01:26:44;;;;;;;5.97;4.88;;;;;;;14.01;100.00;97533.53;5090758;28;20093;-48
2023/12/13 01:29:10;;;;;;;5.82;4.00;;;;;;;14.03;100.00;97524.31;5090708;28;20031;-48
2023/12/13 01:31:36;;;;;;;7.18;3.63;;;;;;;13.99;100.00;97531.13;5073901;28;20027;-48
2023/12/13 01:34:02;;;;;;;4.47;3.50;;;;;;;14.04;100.00;97523.25;5091838;28;20020;-48
2023/12/13 01:36:28;;;;;;;5.88;3.15;;;;;;;14.04;100.00;97517.97;5091725;28;20111;-49
2023/12/13 01:38:54;;;;;;;3.38;2.70;;;;;;;14.01;100.00;97536.94;5091879;28;20390;-48
2023/12/13 01:41:20;;;;;;;8.20;3.53;;;;;;;14.02;100.00;97533.25;5091908;28;20021;-48
2023/12/13 01:43:46;;;;;;;6.55;3.80;;;;;;;14.06;100.00;97518.50;5091902;28;20433;-48
2023/12/13 01:46:16;;;;;;;4.88;3.90;;;;;;;14.08;100.00;97524.34;5090538;28;20402;-48
2023/12/13 01:48:43;;;;;;;6.15;3.75;;;;;;;14.09;100.00;97519.88;5091914;28;20016;-48
2023/12/13 01:51:11;;;;;;;5.13;3.53;;;;;;;14.04;100.00;97525.09;5092101;28;20107;-48
2023/12/13 01:53:38;;;;;;;5.53;3.47;;;;;;;14.08;100.00;97521.69;5091715;28;20021;-48
2023/12/13 01:56:07;;;;;;;7.70;4.05;;;;;;;14.16;100.00;97509.88;5091649;28;20028;-48
2023/12/13 01:58:38;;;;;;;5.93;3.80;;;;;;;14.21;100.00;97517.06;5090507;28;20427;-48
2023/12/13 02:01:06;;;;;;;11.48;9.95;;;;;;;14.36;100.00;97506.59;5091741;28;20078;-48
2023/12/13 02:03:33;;;;;;;17.77;15.77;;;;;;;14.27;100.00;97526.63;5091723;28;20062;-48
2023/12/13 02:06:01;;;;;;;7.38;6.10;;;;;;;14.14;100.00;97533.88;5091658;28;20363;-48
2023/12/13 02:08:27;;;;;;;53.53;47.80;;;;;;;14.16;100.00;97525.72;5091682;28;20024;-48
2023/12/13 02:10:53;;;;;;;12.05;10.35;;;;;;;14.18;100.00;97515.72;5090259;28;20058;-47
2023/12/13 02:13:19;;;;;;;10.65;6.25;;;;;;;14.06;100.00;97501.91;5090328;28;20028;-48
2023/12/13 02:15:45;;;;;;;5.85;4.13;;;;;;;14.07;100.00;97511.41;5091788;28;20520;-48
2023/12/13 02:18:11;;;;;;;34.00;28.20;;;;;;;14.07;100.00;97499.00;5090226;28;20405;-48
2023/12/13 02:20:37;;;;;;;23.02;20.58;;;;;;;14.07;100.00;97493.75;5090212;28;20058;-48
2023/12/13 02:23:03;;;;;;;9.70;4.60;;;;;;;13.94;100.00;97480.97;5091932;28;20509;-48
2023/12/13 02:25:51;;;;;;;7.03;4.70;;;;;;;13.90;100.00;97475.38;5095467;28;20028;-48
2023/12/13 02:28:17;;;;;;;6.78;4.43;;;;;;;14.01;100.00;97489.47;5083478;28;20031;-48
2023/12/13 02:30:45;;;;;;;5.35;3.65;;;;;;;13.95;100.00;97477.28;5094044;28;20077;-49
2023/12/13 02:33:11;;;;;;;4.85;3.88;;;;;;;13.85;100.00;97477.22;5094182;28;20059;-48
2023/12/13 02:35:37;;;;;;;6.35;3.75;;;;;;;13.78;100.00;97462.38;5095209;28;20024;-48
2023/12/13 02:38:02;;;;;;;4.93;3.70;;;;;;;13.82;100.00;97452.13;5095005;28;20074;-48
2023/12/13 02:40:28;;;;;;;4.15;3.50;;;;;;;13.87;100.00;97468.00;5095207;28;20363;-48
2023/12/13 02:42:54;;;;;;;5.15;3.25;;;;;;;13.75;100.00;97472.63;5095109;28;20107;-48
2023/12/13 02:45:20;;;;;;;7.35;3.80;;;;;;;13.71;100.00;97459.16;5095038;28;20277;-48
2023/12/13 02:47:46;;;;;;;7.00;3.67;;;;;;;13.78;100.00;97462.38;5094977;28;20020;-48
2023/12/13 02:50:13;;;;;;;7.30;3.90;;;;;;;13.79;100.00;97457.91;5093665;28;20023;-48
2023/12/13 02:52:40;;;;;;;6.35;5.15;;;;;;;13.77;100.00;97449.44;5094970;28;20051;-49
2023/12/13 02:55:09;;;;;;;5.10;3.95;;;;;;;13.73;100.00;97454.41;5094784;28;20256;-48
2023/12/13 02:57:34;;;;;;;7.53;4.20;;;;;;;13.83;100.00;97447.66;5094908;28;20148;-48
2023/12/13 03:00:00;;;;;;;5.45;3.60;;;;;;;13.83;100.00;97442.38;5093534;28;20036;-48
2023/12/13 03:02:26;;;;;;;7.55;3.78;;;;;;;13.88;100.00;97445.84;5094746;28;20378;-48
2023/12/13 03:04:52;;;;;;;6.63;3.58;;;;;;;14.02;100.00;97440.94;5093405;28;20055;-49
2023/12/13 03:07:18;;;;;;;5.45;3.38;;;;;;;14.10;100.00;97423.84;5094671;28;20024;-48
2023/12/13 03:09:44;;;;;;;5.72;3.47;;;;;;;14.08;100.00;97445.19;5094624;28;20027;-48
2023/12/13 03:12:10;;;;;;;5.78;2.97;;;;;;;14.15;100.00;97434.44;5094590;28;20024;-48
2023/12/13 03:14:35;;;;;;;4.78;3.33;;;;;;;14.28;100.00;97401.50;5094476;28;20024;-48
2023/12/13 03:17:01;;;;;;;8.70;3.83;;;;;;;14.27;100.00;97415.78;5093070;28;20031;-48
2023/12/13 03:19:27;;;;;;;6.80;3.15;;;;;;;14.22;100.00;97403.31;5094725;28;20032;-48
2023/12/13 03:21:52;;;;;;;4.28;2.90;;;;;;;14.14;100.00;97417.00;5094363;28;20020;-48
2023/12/13 03:24:18;;;;;;;5.65;2.97;;;;;;;14.10;100.00;97418.56;5094358;28;20035;-48
2023/12/13 03:26:44;;;;;;;5.50;2.78;;;;;;;13.95;100.00;97409.50;5092975;28;20057;-48
2023/12/13 03:29:10;;;;;;;6.25;3.67;;;;;;;14.01;100.00;97399.78;5094138;28;20024;-48
2023/12/13 03:31:35;;;;;;;5.68;3.30;;;;;;;14.00;100.00;97403.44;5094218;28;20089;-48
2023/12/13 03:34:01;;;;;;;4.47;2.70;;;;;;;13.99;100.00;97410.56;5093984;28;20020;-48
2023/12/13 03:36:27;;;;;;;4.68;2.90;;;;;;;14.02;100.00;97395.28;5092787;28;20047;-48
2023/12/13 03:38:53;;;;;;;4.50;3.20;;;;;;;13.92;100.00;97394.19;5094128;28;20141;-48
2023/12/13 03:41:19;;;;;;;3.22;2.20;;;;;;;14.01;100.00;97399.78;5092676;28;20020;-48
2023/12/13 03:43:45;;;;;;;6.40;2.78;;;;;;;14.16;100.00;97391.16;5093976;28;20028;-48
2023/12/13 03:46:11;;;;;;;4.70;2.22;;;;;;;14.15;100.00;97387.72;5093967;28;20031;-48
2023/12/13 03:48:37;;;;;;;8.10;3.40;;;;;;;14.04;100.00;97398.47;5093875;28;20121;-48
2023/12/13 03:51:04;;;;;;;5.93;2.50;;;;;;;13.99;100.00;97392.13;5093735;28;20062;-48
2023/12/13 03:53:31;;;;;;;4.88;2.22;;;;;;;14.03;100.00;97386.34;5093739;28;20027;-48
2023/12/13 03:55:56;;;;;;;3.17;2.47;;;;;;;14.06;100.00;97388.47;5093714;28;20070;-48
2023/12/13 03:58:22;;;;;;;4.22;2.40;;;;;;;14.24;100.00;97384.59;5093682;28;20024;-48
2023/12/13 04:00:48;;;;;;;4.13;2.30;;;;;;;14.13;100.00;97373.22;5093590;28;20581;-48
2023/12/13 04:03:13;;;;;;;4.45;2.63;;;;;;;14.13;100.00;97381.13;5093621;28;20024;-48
2023/12/13 04:05:39;;;;;;;5.00;2.70;;;;;;;14.06;100.00;97373.41;5093548;28;20101;-48
2023/12/13 04:08:06;;;;;;;6.70;2.78;;;;;;;13.99;100.00;97367.59;5093421;28;20035;-48
2023/12/13 04:10:32;;;;;;;5.35;2.63;;;;;;;14.03;100.00;97366.03;5093697;28;20386;-48
2023/12/13 04:12:58;;;;;;;2.53;2.08;;;;;;;14.13;100.00;97362.66;5093365;28;20031;-48
2023/12/13 04:15:24;;;;;;;5.03;2.97;;;;;;;14.19;100.00;97365.06;5093312;28;20489;-48
2023/12/13 04:17:50;;;;;;;3.80;3.25;;;;;;;14.23;100.00;97367.19;5093308;28;20024;-48
2023/12/13 04:20:16;;;;;;;3.90;2.35;;;;;;;14.19;100.00;97362.41;5093175;28;20024;-48
2023/12/13 04:22:42;;;;;;;4.07;2.90;;;;;;;14.12;100.00;97367.13;5093286;28;20494;-48
2023/12/13 04:25:09;;;;;;;3.97;2.78;;;;;;;13.95;100.00;97369.16;5093206;28;20032;-48
2023/12/13 04:27:34;;;;;;;3.72;2.60;;;;;;;13.77;100.00;97359.78;5093146;28;20546;-48
2023/12/13 04:30:00;;;;;;;14.23;8.80;;;;;;;13.54;100.00;97360.94;5093053;28;20012;-48
2023/12/13 04:32:26;;;;;;;4.85;3.42;;;;;;;13.38;100.00;97370.56;5093094;28;20059;-48
2023/12/13 04:34:52;;;;;;;4.43;3.33;;;;;;;13.37;100.00;97372.41;5092832;28;20535;-48
2023/12/13 04:37:19;;;;;;;10.85;7.47;;;;;;;13.45;100.00;97373.00;5091474;28;20044;-48
2023/12/13 04:39:45;;;;;;;5.45;3.88;;;;;;;13.55;100.00;97373.09;5093119;28;20386;-48
2023/12/13 04:42:11;;;;;;;5.07;2.88;;;;;;;13.58;100.00;97367.28;5092788;28;20032;-48
2023/12/13 04:44:38;;;;;;;6.93;2.85;;;;;;;13.62;100.00;97378.91;5058061;28;20493;-48
2023/12/13 04:47:04;;;;;;;5.07;3.03;;;;;;;13.55;100.00;97373.88;5092439;28;20032;-48
2023/12/13 04:49:30;;;;;;;4.25;3.33;;;;;;;13.66;100.00;97369.50;5092759;28;20024;-48
2023/12/13 04:51:56;;;;;;;4.88;3.15;;;;;;;13.69;100.00;97361.06;5091314;28;20035;-48
2023/12/13 04:54:22;;;;;;;10.65;3.28;;;;;;;13.61;100.00;97382.63;5092550;28;20016;-48
2023/12/13 04:56:48;;;;;;;4.20;3.50;;;;;;;13.53;100.00;97364.63;5092546;28;20020;-48
2023/12/13 04:59:13;;;;;;;7.15;5.50;;;;;;;13.46;100.00;97371.94;5091231;28;20517;-48
2023/12/13 05:01:39;;;;;;;7.03;3.83;;;;;;;13.48;100.00;97373.28;5091182;28;20073;-48
2023/12/13 05:04:04;;;;;;;7.22;3.92;;;;;;;13.55;100.00;97365.16;5092387;28;20093;-48
2023/12/13 05:06:30;;;;;;;7.30;4.63;;;;;;;13.53;100.00;97375.16;5091080;28;20023;-48
2023/12/13 05:08:56;;;;;;;7.15;4.80;;;;;;;13.44;100.00;97366.94;5092392;28;20107;-48
2023/12/13 05:11:21;;;;;;;7.18;3.58;;;;;;;13.42;100.00;97362.94;5092290;28;20043;-48
2023/12/13 05:13:47;;;;;;;5.03;3.70;;;;;;;13.43;100.00;97364.56;5092221;28;20410;-48
2023/12/13 05:16:13;;;;;;;9.13;3.85;;;;;;;13.44;100.00;97385.38;5092287;28;20054;-47
2023/12/13 05:18:39;;;;;;;8.35;6.93;;;;;;;13.39;100.00;97383.47;5092432;28;20524;-48
2023/12/13 05:21:05;;;;;;;10.70;5.07;;;;;;;13.38;100.00;97373.19;5092224;28;20552;-48
2023/12/13 05:23:30;;;;;;;5.82;3.80;;;;;;;13.41;100.00;97369.28;5092120;28;20081;-48
2023/12/13 05:25:56;;;;;;;8.30;4.80;;;;;;;13.27;100.00;97371.50;5090870;28;20510;-48
2023/12/13 05:28:22;;;;;;;5.47;3.80;;;;;;;13.10;99.25;97377.66;5090839;28;20557;-48
2023/12/13 05:30:47;;;;;;;5.05;3.60;;;;;;;13.09;100.00;97359.47;5090684;28;20482;-48
2023/12/13 05:33:13;;;;;;;4.72;3.45;;;;;;;13.23;100.00;97376.47;5092040;28;20082;-48
2023/12/13 05:35:39;;;;;;;27.13;24.80;;;;;;;13.19;100.00;97378.00;5091957;28;20099;-48
2023/12/13 05:38:05;;;;;;;6.65;4.95;;;;;;;13.33;100.00;97376.59;5091721;28;20044;-48
2023/12/13 05:40:34;;;;;;;7.05;4.45;;;;;;;13.39;100.00;97377.44;5092201;28;20367;-48
2023/12/13 05:43:01;;;;;;;11.82;4.30;;;;;;;13.39;100.00;97383.47;5091838;28;20043;-48
2023/12/13 05:45:26;;;;;;;7.40;4.30;;;;;;;13.44;100.00;97384.56;5091835;28;20020;-48
2023/12/13 05:47:52;;;;;;;7.80;4.95;;;;;;;13.48;100.00;97378.56;5091826;28;20027;-48
2023/12/13 05:50:18;;;;;;;9.35;4.50;;;;;;;13.54;100.00;97389.94;5091916;28;20020;-48
2023/12/13 05:52:44;;;;;;;5.47;4.00;;;;;;;13.52;100.00;97390.19;5091877;28;20032;-48
2023/12/13 05:55:13;;;;;;;6.82;3.50;;;;;;;13.45;99.84;97383.53;5091780;28;20054;-48
2023/12/13 05:57:39;;;;;;;6.50;4.38;;;;;;;13.43;99.21;97386.41;5091864;28;20028;-48
2023/12/13 06:00:06;;;;;;;7.22;4.25;;;;;;;13.43;100.00;97367.19;5095752;28;20024;-48
2023/12/13 06:02:35;;;;;;;6.85;3.80;;;;;;;13.46;100.00;97371.94;5095966;28;20031;-48
2023/12/13 06:05:03;;;;;;;5.45;4.00;;;;;;;13.42;100.00;97376.13;5095804;28;20106;-48
2023/12/13 06:07:29;;;;;;;5.53;3.42;;;;;;;13.39;100.00;97370.31;5096096;28;20028;-48
2023/12/13 06:09:55;;;;;;;9.73;4.30;;;;;;;13.45;100.00;97373.00;5095768;28;20052;-48
2023/12/13 06:12:20;;;;;;;5.22;3.55;;;;;;;13.46;98.88;97361.41;5095766;28;20107;-48
2023/12/13 06:14:46;;;;;;;6.88;3.92;;;;;;;13.36;99.18;97365.56;5095600;28;20031;-48
2023/12/13 06:17:12;;;;;;;5.43;3.75;;;;;;;13.30;99.96;97373.66;5094310;28;20055;-48
2023/12/13 06:19:37;;;;;;;9.18;6.72;;;;;;;13.25;100.00;97363.84;5094379;28;20024;-48
2023/12/13 06:22:03;;;;;;;8.52;4.63;;;;;;;13.22;99.95;97361.72;5095559;28;20024;-48
2023/12/13 06:24:29;;;;;;;8.07;3.80;;;;;;;13.19;99.98;97362.19;5095778;28;20042;-48
2023/12/13 06:26:54;;;;;;;8.05;4.68;;;;;;;13.04;98.48;97368.13;5095491;28;20024;-48
2023/12/13 06:29:20;;;;;;;5.47;3.85;;;;;;;12.99;100.00;97360.16;5095432;28;20482;-48
2023/12/13 06:31:46;;;;;;;9.45;3.70;;;;;;;12.94;99.82;97358.28;5093994;28;20032;-48
2023/12/13 06:34:11;;;;;;;8.38;5.65;;;;;;;12.83;100.00;97377.63;5095525;28;20020;-48
2023/12/13 06:36:38;;;;;;;7.47;4.28;;;;;;;12.79;100.00;97381.81;5094999;28;20044;-49
2023/12/13 06:39:04;;;;;;;23.60;21.50;;;;;;;12.75;100.00;97386.75;5095232;28;20109;-48
2023/12/13 06:41:33;;;;;;;11.55;8.95;;;;;;;12.83;100.00;97398.69;5095134;28;20505;-48
2023/12/13 06:43:58;;;;;;;8.85;4.40;;;;;;;12.92;100.00;97401.72;5093899;28;20540;-48
2023/12/13 06:46:24;;;;;;;8.35;4.32;;;;;;;12.91;100.00;97389.56;5095339;28;20099;-48
2023/12/13 06:48:51;;;;;;;8.25;4.03;;;;;;;12.94;100.00;97392.50;5095045;28;20485;-48
2023/12/13 06:51:17;;;;;;;10.25;7.88;;;;;;;12.95;100.00;97367.75;5094944;28;20107;-49
2023/12/13 06:53:44;;;;;;;8.77;4.32;;;;;;;12.95;97.28;97359.84;5093560;28;20024;-48
2023/12/13 06:56:10;;;;;;;9.20;4.47;;;;;;;13.08;99.09;97361.31;5094842;28;20142;-48
2023/12/13 06:58:36;;;;;;;6.10;4.47;;;;;;;13.11;99.33;97367.91;5094926;28;20106;-48
2023/12/13 07:01:01;;;;;;;7.65;5.00;;;;;;;13.11;96.67;97363.44;5094747;28;20028;-48
2023/12/13 07:03:27;;;;;;;7.50;4.25;;;;;;;13.13;97.55;97365.84;5094831;28;20039;-48
2023/12/13 07:05:53;;;;;;;8.20;4.68;;;;;;;13.07;96.64;97377.38;5094657;28;20024;-48
2023/12/13 07:08:19;;;;;;;8.77;4.78;;;;;;;13.05;96.57;97367.06;5094662;28;20028;-48
2023/12/13 07:10:45;;;;;;;9.18;5.85;;;;;;;13.10;96.80;97384.75;5093141;28;20054;-48
2023/12/13 07:13:10;;;;;;;7.38;6.40;;;;;;;13.05;97.86;97368.91;5094599;28;20532;-48
2023/12/13 07:15:37;;;;;;;8.20;5.00;;;;;;;13.04;98.48;97356.78;5094481;28;20097;-48
2023/12/13 07:18:03;;;;;;;7.32;5.47;;;;;;;12.99;97.48;97339.09;5094407;28;20394;-48
2023/12/13 07:20:30;;;;;;;10.88;5.20;;;;;;;13.03;95.91;97366.53;5094358;28;20020;-48
2023/12/13 07:22:57;;;;;;;8.15;5.20;;;;;;;13.04;95.87;97335.72;5094345;28;20016;-48
2023/12/13 07:25:23;;;;;;;8.63;5.85;;;;;;;12.99;94.95;97354.91;5094321;28;20077;-48
2023/12/13 07:27:48;;;;;;;6.35;4.30;;;;;;;12.99;96.23;97339.88;5092996;28;20486;-48
2023/12/13 07:30:14;;;;;;;10.30;6.53;;;;;;;12.88;95.83;97354.00;5094229;28;20061;-48
2023/12/13 07:32:41;;;;;;;10.57;5.72;;;;;;;12.84;98.19;97357.38;5094151;28;20478;-48
2023/12/13 07:35:07;;;;;;;13.35;11.05;;;;;;;12.83;98.31;97345.25;5094050;28;20012;-48
2023/12/13 07:37:35;;;;;;;13.00;6.22;;;;;;;12.81;98.84;97348.13;5093864;28;20069;-49
2023/12/13 07:40:02;;;;;;;11.48;6.03;;;;;;;12.82;98.47;97351.56;5094039;28;20020;-48
2023/12/13 07:42:27;;;;;;;8.35;5.25;;;;;;;12.79;98.41;97344.94;5094072;28;20027;-48
2023/12/13 07:44:53;;;;;;;8.80;4.80;;;;;;;12.81;99.88;97350.75;5094001;28;20024;-48
2023/12/13 07:47:19;;;;;;;8.00;5.22;;;;;;;12.76;97.15;97350.72;5093941;28;20586;-48
2023/12/13 07:49:44;;;;;;;10.82;7.75;;;;;;;12.76;96.43;97363.88;5092564;28;20031;-48
2023/12/13 07:52:12;;;;;;;8.85;6.20;;;;;;;12.71;95.87;97367.25;5093861;28;20024;-48
2023/12/13 07:54:37;;;;;;;11.75;6.80;;;;;;;12.68;97.10;97364.31;5093937;28;20110;-48
2023/12/13 07:57:03;;;;;;;14.75;6.68;;;;;;;12.81;97.90;97378.94;5092407;28;20536;-48
2023/12/13 07:59:29;;;;;;;20.73;14.20;;;;;;;12.96;97.86;97368.56;5093724;28;20039;-48
2023/12/13 08:01:54;;;;;;;53.72;48.65;;;;;;;13.06;97.04;97378.38;5093595;28;20039;-48
2023/12/13 08:04:20;;;;;;;17.88;14.20;;;;;;;13.02;95.83;97364.94;5093587;28;20486;-48
2023/12/13 08:06:46;;;;;;;12.20;6.25;;;;;;;12.90;94.00;97388.78;5092217;28;20049;-48
2023/12/13 08:09:12;;;;;;;11.90;10.20;;;;;;;12.93;94.83;97367.22;5092161;28;20375;-48
2023/12/13 08:11:38;;;;;;;12.65;9.75;;;;;;;12.96;95.02;97361.47;5093434;28;20501;-48
2023/12/13 08:14:04;;;;;;;10.68;7.65;;;;;;;12.95;95.54;97359.84;5093391;28;20024;-48
2023/12/13 08:16:30;;;;;;;12.77;8.52;;;;;;;12.96;95.03;97372.00;5093379;28;20028;-48
2023/12/13 08:18:56;;;;;;;20.38;12.05;;;;;;;12.95;94.92;97370.38;5093296;28;20020;-48
2023/12/13 08:21:23;;;;;;;20.15;17.13;;;;;;;12.93;94.71;97377.75;5092683;28;20016;-48
2023/12/13 08:23:50;;;;;;;16.45;12.45;;;;;;;12.88;95.30;97384.81;5093231;28;20101;-48
2023/12/13 08:26:17;;;;;;;60.78;55.38;;;;;;;12.88;95.96;97376.91;5093159;28;20046;-48
2023/12/13 08:28:43;;;;;;;12.35;10.23;;;;;;;12.95;97.10;97378.28;5093067;28;20024;-48
2023/12/13 08:31:11;;;;;;;10.73;8.15;;;;;;;13.03;95.78;97376.28;5093113;28;20016;-48
2023/12/13 08:33:44;;;;;;;9.40;7.10;;;;;;;13.04;94.84;97378.66;5092931;28;20114;-48
2023/12/13 08:36:13;;;;;;;9.82;7.40;;;;;;;12.96;94.44;97371.22;5092699;28;20048;-49
2023/12/13 08:38:42;;;;;;;7.20;5.65;;;;;;;12.95;94.13;97367.75;5092959;28;20109;-48
2023/12/13 08:41:09;;;;;;;16.00;8.70;;;;;;;12.86;93.69;97368.44;5091688;28;20036;-48
2023/12/13 08:43:35;;;;;;;8.30;5.90;;;;;;;12.87;93.96;97389.28;5092778;28;20024;-48
2023/12/13 08:46:01;;;;;;;11.82;6.93;;;;;;;12.71;92.64;97380.41;5091449;28;20023;-48
2023/12/13 08:48:28;;;;;;;9.38;5.45;;;;;;;13.21;95.93;97364.59;5092808;28;20016;-48
2023/12/13 08:50:53;;;;;;;7.60;5.03;;;;;;;14.08;93.27;97368.69;5092664;28;20062;-48
2023/12/13 08:53:19;;;;;;;8.20;5.18;;;;;;;14.77;89.89;97364.28;5092678;28;20051;-48
2023/12/13 08:55:45;;;;;;;9.52;5.53;;;;;;;15.32;88.15;97372.56;5091231;28;20032;-48
2023/12/13 08:58:12;;;;;;;9.85;5.10;;;;;;;16.03;86.38;97373.63;5091282;28;20024;-48
2023/12/13 09:00:38;;;;;;;5.47;4.38;;;;;;;16.59;81.45;97362.84;5092492;28;20440;-48
2023/12/13 09:03:04;;;;;;;7.47;4.70;;;;;;;17.09;79.35;97362.88;5092530;28;20020;-48
2023/12/13 09:05:30;;;;;;;7.85;4.13;;;;;;;17.55;72.60;97367.88;5092450;28;20063;-48
2023/12/13 09:07:56;;;;;;;9.48;4.45;;;;;;;17.56;72.68;97364.13;5091095;28;20024;-49
2023/12/13 09:10:23;;;;;;;7.90;3.75;;;;;;;16.81;72.06;97373.13;5092407;28;20081;-48
2023/12/13 09:12:50;;;;;;;6.03;4.57;;;;;;;16.02;72.89;97380.78;5091039;28;20028;-48
2023/12/13 09:15:18;;;;;;;5.30;3.78;;;;;;;15.43;73.03;97368.84;5092180;28;20521;-48
2023/12/13 09:17:47;;;;;;;5.60;3.65;;;;;;;15.00;75.46;97380.72;5092267;28;20525;-49
2023/12/13 09:20:16;;;;;;;5.70;3.47;;;;;;;14.78;79.85;97376.41;5090950;28;20036;-48
2023/12/13 09:22:43;;;;;;;7.85;3.90;;;;;;;14.70;77.60;97355.78;5092177;28;20558;-48
2023/12/13 09:25:15;;;;;;;6.43;3.50;;;;;;;14.62;77.17;97382.69;5090812;28;20024;-49
2023/12/13 09:27:46;;;;;;;4.55;2.97;;;;;;;14.62;76.21;97387.97;5092128;28;20035;-48
2023/12/13 09:30:13;;;;;;;8.15;5.65;;;;;;;14.52;77.90;97386.06;5092074;28;20118;-48
2023/12/13 09:32:42;;;;;;;5.93;3.28;;;;;;;14.36;77.33;97401.03;5091311;28;20480;-48
2023/12/13 09:35:08;;;;;;;5.63;3.60;;;;;;;14.16;77.84;97399.84;5091881;28;20103;-49
2023/12/13 09:37:34;;;;;;;8.32;3.30;;;;;;;13.98;79.18;97398.47;5095720;28;20052;-48
2023/12/13 09:40:00;;;;;;;9.88;8.88;;;;;;;14.05;81.11;97389.53;5091985;28;20057;-48
2023/12/13 09:42:26;;;;;;;4.72;3.50;;;;;;;14.29;84.07;97403.13;5091952;28;20025;-49
2023/12/13 09:44:52;;;;;;;5.32;3.72;;;;;;;15.05;86.14;97394.72;5090561;28;20520;-48
2023/12/13 09:47:23;;;;;;;8.98;4.00;;;;;;;16.18;82.81;97398.19;5091896;28;20497;-49
2023/12/13 09:49:50;;;;;;;6.78;3.90;;;;;;;16.26;82.79;97393.41;5091929;28;20059;-48
2023/12/13 09:52:20;;;;;;;4.72;3.35;;;;;;;16.06;79.34;97381.03;5091864;28;20020;-48
2023/12/13 09:54:47;;;;;;;6.40;3.17;;;;;;;15.76;78.72;97388.72;5091838;28;20028;-49
2023/12/13 09:57:13;;;;;;;12.98;5.22;;;;;;;15.73;80.04;97383.97;5091707;28;20028;-48
2023/12/13 09:59:40;;;;;;;19.63;5.88;;;;;;;15.98;79.91;97396.38;5090451;28;20028;-49
2023/12/13 10:02:12;;;;;;;9.68;3.40;;;;;;;15.98;76.48;97383.16;5057003;28;20498;-49
2023/12/13 10:04:39;;;;;;;5.68;2.65;;;;;;;15.65;76.29;97394.25;5091970;28;20084;-48
2023/12/13 10:07:08;;;;;;;5.60;1.95;;;;;;;15.48;77.17;97386.59;5090458;28;20110;-49
2023/12/13 10:09:34;;;;;;;5.75;2.63;;;;;;;15.34;75.62;97376.53;5091731;28;20052;-48
2023/12/13 10:12:00;;;;;;;7.10;2.70;;;;;;;15.33;77.99;97382.88;5090301;28;20118;-48
2023/12/13 10:14:27;;;;;;;5.13;2.20;;;;;;;15.38;80.03;97390.03;5091570;28;20040;-48
2023/12/13 10:16:53;;;;;;;5.30;2.40;;;;;;;15.41;78.62;97386.84;5073546;28;20020;-49
2023/12/13 10:19:19;;;;;;;6.93;2.65;;;;;;;15.37;74.77;97385.78;5091587;28;20024;-48
2023/12/13 10:21:48;;;;;;;4.70;2.30;;;;;;;15.21;74.73;97392.88;5090247;28;20447;-48
2023/12/13 10:24:17;;;;;;;3.92;2.20;;;;;;;15.24;77.32;97396.88;5090616;28;20116;-48
2023/12/13 10:26:43;;;;;;;7.18;2.58;;;;;;;15.82;74.58;97376.28;5090360;28;20486;-49
2023/12/13 10:29:08;;;;;;;3.15;1.98;;;;;;;16.24;68.89;97377.00;5090247;28;20041;-49
2023/12/13 10:31:37;;;;;;;4.10;2.20;;;;;;;16.34;70.26;97382.28;5090129;28;20035;-48
2023/12/13 10:34:03;;;;;;;13.95;4.35;;;;;;;16.30;72.53;97381.25;5090075;28;20028;-48
2023/12/13 10:36:32;;;;;;;13.93;10.05;;;;;;;16.23;73.89;97376.22;5091150;28;20028;-50
2023/12/13 10:39:00;;;;;;;5.00;2.22;;;;;;;16.13;68.33;97370.94;5091464;28;20546;-49
2023/12/13 10:41:27;;;;;;;5.22;1.80;;;;;;;15.90;70.59;97377.63;5090079;28;20024;-49
2023/12/13 10:43:58;;;;;;;4.57;2.17;;;;;;;15.77;70.83;97366.53;5090279;28;20025;-49
2023/12/13 10:46:33;;;;;;;4.57;1.63;;;;;;;15.57;67.11;97363.84;5095223;28;20505;-49
2023/12/13 10:49:00;;;;;;;3.72;1.80;;;;;;;15.19;65.21;97371.22;5095203;28;20541;-49
2023/12/13 10:51:26;;;;;;;6.25;1.70;;;;;;;15.03;68.64;97377.53;5095065;28;20028;-49
2023/12/13 10:53:53;;;;;;;3.40;1.80;;;;;;;14.85;66.65;97378.81;5094941;28;20105;-48
2023/12/13 10:56:19;;;;;;;2.88;1.50;;;;;;;14.84;66.50;97388.59;5094830;28;20024;-48
2023/12/13 10:58:46;;;;;;;3.33;1.60;;;;;;;14.67;66.82;97372.16;5094864;28;20111;-49
2023/12/13 11:01:14;;;;;;;7.78;2.33;;;;;;;14.67;69.70;97377.44;5094887;28;20027;-47
2023/12/13 11:04:05;;;;;;;2.80;1.95;;;;;;;14.73;64.15;97374.56;5093805;28;20160;-48
2023/12/13 11:06:31;;;;;;;5.82;2.17;;;;;;;14.59;67.28;97373.47;5093481;28;20107;-49
2023/12/13 11:09:13;;;;;;;4.20;1.80;;;;;;;14.69;70.15;97380.59;5093428;28;20216;-49
2023/12/13 11:11:43;;;;;;;4.05;2.05;;;;;;;15.35;73.35;97379.97;5094641;28;20020;-48
2023/12/13 11:14:11;;;;;;;10.38;2.50;;;;;;;15.62;66.74;97374.44;5094531;28;20024;-49
2023/12/13 11:16:44;;;;;;;5.30;2.05;;;;;;;16.79;66.13;97369.91;5094525;28;20486;-49
2023/12/13 11:19:15;;;;;;;3.47;2.33;;;;;;;18.30;64.37;97363.97;5094593;28;20032;-49
2023/12/13 11:21:41;;;;;;;9.93;2.60;;;;;;;18.91;60.08;97365.13;5094448;28;20054;-46
2023/12/13 11:24:25;;;;;;;4.30;1.95;;;;;;;19.41;59.93;97340.72;5094440;28;20031;-46